sensor_id;sensor_type;location;lat;lon;timestamp;P1;durP1;ratioP1;P2;durP2;ratioP2
22622;SDS011;11478;51.094;7.030;2022-08-01T00:00:07;5.60;;;3.58;;
22622;SDS011;11478;51.094;7.030;2022-08-01T00:02:38;8.13;;;3.88;;
22622;SDS011;11478;51.094;7.030;2022-08-01T00:05:07;5.15;;;4.22;;
22622;SDS011;11478;51.094;7.030;2022-08-01T00:07:38;6.63;;;4.10;;
22622;SDS011;11478;51.094;7.030;2022-08-01T00:10:05;7.28;;;3.95;;
22622;SDS011;11478;51.094;7.030;2022-08-01T00:12:36;4.28;;;3.60;;
22622;SDS011;11478;51.094;7.030;2022-08-01T00:15:04;5.35;;;3.50;;
22622;SDS011;11478;51.094;7.030;2022-08-01T00:17:32;4.72;;;3.17;;
22622;SDS011;11478;51.094;7.030;2022-08-01T00:19:58;4.75;;;3.15;;
22622;SDS011;11478;51.094;7.030;2022-08-01T00:22:28;7.07;;;3.22;;
22622;SDS011;11478;51.094;7.030;2022-08-01T00:24:56;5.00;;;3.15;;
22622;SDS011;11478;51.094;7.030;2022-08-01T00:27:22;4.57;;;3.25;;
22622;SDS011;11478;51.094;7.030;2022-08-01T00:29:49;4.03;;;3.05;;
22622;SDS011;11478;51.094;7.030;2022-08-01T00:34:47;3.95;;;3.30;;
22622;SDS011;11478;51.094;7.030;2022-08-01T00:40:06;7.68;;;3.33;;
22622;SDS011;11478;51.094;7.030;2022-08-01T00:42:35;3.50;;;3.00;;
22622;SDS011;11478;51.094;7.030;2022-08-01T00:45:02;5.13;;;3.38;;
22622;SDS011;11478;51.094;7.030;2022-08-01T00:47:29;3.75;;;2.60;;
22622;SDS011;11478;51.094;7.030;2022-08-01T00:49:56;5.43;;;3.30;;
22622;SDS011;11478;51.094;7.030;2022-08-01T00:52:25;4.20;;;2.58;;
22622;SDS011;11478;51.094;7.030;2022-08-01T00:54:52;4.15;;;2.72;;
22622;SDS011;11478;51.094;7.030;2022-08-01T00:57:19;3.78;;;2.58;;
22622;SDS011;11478;51.094;7.030;2022-08-01T00:59:46;6.68;;;2.65;;
22622;SDS011;11478;51.094;7.030;2022-08-01T01:02:15;5.65;;;2.95;;
22622;SDS011;11478;51.094;7.030;2022-08-01T01:04:43;5.57;;;3.25;;
22622;SDS011;11478;51.094;7.030;2022-08-01T01:10:22;3.95;;;2.97;;
22622;SDS011;11478;51.094;7.030;2022-08-01T01:13:04;4.72;;;3.10;;
22622;SDS011;11478;51.094;7.030;2022-08-01T01:15:59;5.70;;;3.35;;
22622;SDS011;11478;51.094;7.030;2022-08-01T01:31:24;8.23;;;3.58;;
22622;SDS011;11478;51.094;7.030;2022-08-01T01:33:55;5.28;;;3.33;;
22622;SDS011;11478;51.094;7.030;2022-08-01T01:36:24;6.75;;;4.18;;
22622;SDS011;11478;51.094;7.030;2022-08-01T01:39:03;5.55;;;3.78;;
22622;SDS011;11478;51.094;7.030;2022-08-01T01:41:30;7.20;;;3.40;;
22622;SDS011;11478;51.094;7.030;2022-08-01T01:43:57;6.80;;;3.95;;
22622;SDS011;11478;51.094;7.030;2022-08-01T01:46:26;6.18;;;3.60;;
22622;SDS011;11478;51.094;7.030;2022-08-01T01:49:00;4.60;;;3.65;;
22622;SDS011;11478;51.094;7.030;2022-08-01T01:51:27;4.53;;;3.80;;
22622;SDS011;11478;51.094;7.030;2022-08-01T01:53:55;8.80;;;4.20;;
22622;SDS011;11478;51.094;7.030;2022-08-01T01:56:23;6.85;;;4.18;;
22622;SDS011;11478;51.094;7.030;2022-08-01T01:59:02;10.00;;;4.22;;
22622;SDS011;11478;51.094;7.030;2022-08-01T02:01:31;7.15;;;4.13;;
22622;SDS011;11478;51.094;7.030;2022-08-01T02:03:59;5.28;;;4.13;;
22622;SDS011;11478;51.094;7.030;2022-08-01T02:06:32;7.00;;;4.47;;
22622;SDS011;11478;51.094;7.030;2022-08-01T02:08:59;6.95;;;4.03;;
22622;SDS011;11478;51.094;7.030;2022-08-01T02:11:27;6.25;;;3.60;;
22622;SDS011;11478;51.094;7.030;2022-08-01T02:13:55;4.85;;;3.75;;
22622;SDS011;11478;51.094;7.030;2022-08-01T02:16:27;5.30;;;4.43;;
22622;SDS011;11478;51.094;7.030;2022-08-01T02:18:57;7.45;;;4.13;;
22622;SDS011;11478;51.094;7.030;2022-08-01T02:21:43;4.03;;;3.25;;
22622;SDS011;11478;51.094;7.030;2022-08-01T02:24:20;6.78;;;3.90;;
22622;SDS011;11478;51.094;7.030;2022-08-01T02:27:06;4.85;;;3.30;;
22622;SDS011;11478;51.094;7.030;2022-08-01T02:29:45;5.75;;;3.25;;
22622;SDS011;11478;51.094;7.030;2022-08-01T02:32:26;8.40;;;3.70;;
22622;SDS011;11478;51.094;7.030;2022-08-01T02:35:02;5.78;;;3.55;;
22622;SDS011;11478;51.094;7.030;2022-08-01T02:37:36;4.28;;;2.85;;
22622;SDS011;11478;51.094;7.030;2022-08-01T02:40:04;6.85;;;3.22;;
22622;SDS011;11478;51.094;7.030;2022-08-01T02:42:33;3.67;;;2.90;;
22622;SDS011;11478;51.094;7.030;2022-08-01T02:45:03;7.15;;;3.50;;
22622;SDS011;11478;51.094;7.030;2022-08-01T02:47:36;4.40;;;3.00;;
22622;SDS011;11478;51.094;7.030;2022-08-01T02:50:05;7.05;;;3.28;;
22622;SDS011;11478;51.094;7.030;2022-08-01T02:55:05;5.07;;;2.90;;
22622;SDS011;11478;51.094;7.030;2022-08-01T02:57:34;6.18;;;3.20;;
22622;SDS011;11478;51.094;7.030;2022-08-01T03:00:03;6.68;;;3.33;;
22622;SDS011;11478;51.094;7.030;2022-08-01T03:02:31;6.38;;;3.30;;
22622;SDS011;11478;51.094;7.030;2022-08-01T03:05:00;5.93;;;3.45;;
22622;SDS011;11478;51.094;7.030;2022-08-01T03:07:34;6.05;;;3.65;;
22622;SDS011;11478;51.094;7.030;2022-08-01T03:10:02;4.72;;;3.33;;
22622;SDS011;11478;51.094;7.030;2022-08-01T03:12:29;4.85;;;3.40;;
22622;SDS011;11478;51.094;7.030;2022-08-01T03:14:59;4.40;;;3.15;;
22622;SDS011;11478;51.094;7.030;2022-08-01T03:17:28;4.38;;;3.40;;
22622;SDS011;11478;51.094;7.030;2022-08-01T03:19:58;6.22;;;3.78;;
22622;SDS011;11478;51.094;7.030;2022-08-01T03:22:28;6.22;;;3.30;;
22622;SDS011;11478;51.094;7.030;2022-08-01T03:24:56;5.80;;;3.67;;
22622;SDS011;11478;51.094;7.030;2022-08-01T03:27:24;6.93;;;3.70;;
22622;SDS011;11478;51.094;7.030;2022-08-01T03:29:54;6.28;;;3.72;;
22622;SDS011;11478;51.094;7.030;2022-08-01T03:32:21;3.83;;;2.92;;
22622;SDS011;11478;51.094;7.030;2022-08-01T03:34:48;6.85;;;3.33;;
22622;SDS011;11478;51.094;7.030;2022-08-01T03:37:19;5.93;;;3.70;;
22622;SDS011;11478;51.094;7.030;2022-08-01T03:39:51;7.30;;;3.75;;
22622;SDS011;11478;51.094;7.030;2022-08-01T03:42:33;5.28;;;3.55;;
22622;SDS011;11478;51.094;7.030;2022-08-01T03:45:08;6.40;;;4.15;;
22622;SDS011;11478;51.094;7.030;2022-08-01T03:47:37;9.20;;;4.30;;
22622;SDS011;11478;51.094;7.030;2022-08-01T03:50:07;7.43;;;3.78;;
22622;SDS011;11478;51.094;7.030;2022-08-01T03:52:41;6.75;;;4.75;;
22622;SDS011;11478;51.094;7.030;2022-08-01T03:57:42;7.00;;;4.20;;
22622;SDS011;11478;51.094;7.030;2022-08-01T04:00:12;7.35;;;4.80;;
22622;SDS011;11478;51.094;7.030;2022-08-01T04:02:50;6.75;;;4.45;;
22622;SDS011;11478;51.094;7.030;2022-08-01T04:05:17;8.35;;;5.88;;
22622;SDS011;11478;51.094;7.030;2022-08-01T04:10:41;8.52;;;5.25;;
22622;SDS011;11478;51.094;7.030;2022-08-01T04:13:17;8.75;;;5.35;;
22622;SDS011;11478;51.094;7.030;2022-08-01T04:15:44;8.82;;;5.15;;
22622;SDS011;11478;51.094;7.030;2022-08-01T04:18:14;8.38;;;5.28;;
22622;SDS011;11478;51.094;7.030;2022-08-01T04:20:41;7.85;;;5.30;;
22622;SDS011;11478;51.094;7.030;2022-08-01T04:23:07;7.13;;;4.90;;
22622;SDS011;11478;51.094;7.030;2022-08-01T04:25:36;9.07;;;6.25;;
22622;SDS011;11478;51.094;7.030;2022-08-01T04:28:04;7.38;;;4.95;;
22622;SDS011;11478;51.094;7.030;2022-08-01T04:30:36;6.82;;;5.28;;
22622;SDS011;11478;51.094;7.030;2022-08-01T04:33:14;11.70;;;6.55;;
22622;SDS011;11478;51.094;7.030;2022-08-01T04:35:45;8.55;;;6.30;;
22622;SDS011;11478;51.094;7.030;2022-08-01T04:38:14;10.70;;;6.55;;
22622;SDS011;11478;51.094;7.030;2022-08-01T04:40:44;9.02;;;6.30;;
22622;SDS011;11478;51.094;7.030;2022-08-01T04:43:12;11.98;;;5.95;;
22622;SDS011;11478;51.094;7.030;2022-08-01T04:45:38;10.35;;;6.50;;
22622;SDS011;11478;51.094;7.030;2022-08-01T04:48:05;12.77;;;6.93;;
22622;SDS011;11478;51.094;7.030;2022-08-01T04:50:34;14.70;;;7.20;;
22622;SDS011;11478;51.094;7.030;2022-08-01T04:53:03;8.95;;;6.65;;
22622;SDS011;11478;51.094;7.030;2022-08-01T04:55:30;11.45;;;6.95;;
22622;SDS011;11478;51.094;7.030;2022-08-01T04:57:58;8.02;;;6.88;;
22622;SDS011;11478;51.094;7.030;2022-08-01T05:00:25;10.07;;;7.15;;
22622;SDS011;11478;51.094;7.030;2022-08-01T05:02:54;10.27;;;7.20;;
22622;SDS011;11478;51.094;7.030;2022-08-01T05:05:20;13.73;;;7.72;;
22622;SDS011;11478;51.094;7.030;2022-08-01T05:07:46;10.80;;;7.45;;
22622;SDS011;11478;51.094;7.030;2022-08-01T05:10:12;12.48;;;8.05;;
22622;SDS011;11478;51.094;7.030;2022-08-01T05:12:39;10.98;;;7.97;;
22622;SDS011;11478;51.094;7.030;2022-08-01T05:15:06;12.60;;;7.00;;
22622;SDS011;11478;51.094;7.030;2022-08-01T05:17:34;10.55;;;8.55;;
22622;SDS011;11478;51.094;7.030;2022-08-01T05:20:00;11.52;;;8.68;;
22622;SDS011;11478;51.094;7.030;2022-08-01T05:22:39;10.55;;;8.00;;
22622;SDS011;11478;51.094;7.030;2022-08-01T05:25:05;11.35;;;8.02;;
22622;SDS011;11478;51.094;7.030;2022-08-01T05:27:44;10.93;;;7.68;;
22622;SDS011;11478;51.094;7.030;2022-08-01T05:30:09;12.30;;;8.27;;
22622;SDS011;11478;51.094;7.030;2022-08-01T05:32:36;11.48;;;7.28;;
22622;SDS011;11478;51.094;7.030;2022-08-01T05:35:03;14.15;;;8.10;;
22622;SDS011;11478;51.094;7.030;2022-08-01T05:37:30;14.23;;;8.90;;
22622;SDS011;11478;51.094;7.030;2022-08-01T05:39:56;14.05;;;10.07;;
22622;SDS011;11478;51.094;7.030;2022-08-01T05:42:23;11.75;;;9.95;;
22622;SDS011;11478;51.094;7.030;2022-08-01T05:44:51;10.93;;;8.10;;
22622;SDS011;11478;51.094;7.030;2022-08-01T05:47:17;14.98;;;9.52;;
22622;SDS011;11478;51.094;7.030;2022-08-01T05:49:45;14.30;;;9.45;;
22622;SDS011;11478;51.094;7.030;2022-08-01T05:52:11;11.13;;;8.65;;
22622;SDS011;11478;51.094;7.030;2022-08-01T05:54:38;11.82;;;9.10;;
22622;SDS011;11478;51.094;7.030;2022-08-01T05:57:06;14.00;;;9.07;;
22622;SDS011;11478;51.094;7.030;2022-08-01T05:59:33;12.55;;;9.10;;
22622;SDS011;11478;51.094;7.030;2022-08-01T06:02:02;13.75;;;9.82;;
22622;SDS011;11478;51.094;7.030;2022-08-01T06:04:28;13.43;;;10.05;;
22622;SDS011;11478;51.094;7.030;2022-08-01T06:06:55;14.25;;;11.13;;
22622;SDS011;11478;51.094;7.030;2022-08-01T06:09:25;15.20;;;10.75;;
22622;SDS011;11478;51.094;7.030;2022-08-01T06:11:52;13.95;;;10.57;;
22622;SDS011;11478;51.094;7.030;2022-08-01T06:14:18;12.38;;;10.45;;
22622;SDS011;11478;51.094;7.030;2022-08-01T06:16:44;14.68;;;9.63;;
22622;SDS011;11478;51.094;7.030;2022-08-01T06:19:13;13.38;;;10.18;;
22622;SDS011;11478;51.094;7.030;2022-08-01T06:21:40;15.75;;;12.35;;
22622;SDS011;11478;51.094;7.030;2022-08-01T06:24:06;14.98;;;10.25;;
22622;SDS011;11478;51.094;7.030;2022-08-01T06:26:32;13.90;;;10.70;;
22622;SDS011;11478;51.094;7.030;2022-08-01T06:29:00;15.60;;;10.35;;
22622;SDS011;11478;51.094;7.030;2022-08-01T06:31:26;14.18;;;11.15;;
22622;SDS011;11478;51.094;7.030;2022-08-01T06:33:53;12.35;;;9.70;;
22622;SDS011;11478;51.094;7.030;2022-08-01T06:36:22;18.13;;;11.45;;
22622;SDS011;11478;51.094;7.030;2022-08-01T06:38:48;16.00;;;11.07;;
22622;SDS011;11478;51.094;7.030;2022-08-01T06:41:14;16.58;;;11.63;;
22622;SDS011;11478;51.094;7.030;2022-08-01T06:43:41;17.10;;;12.50;;
22622;SDS011;11478;51.094;7.030;2022-08-01T06:46:09;16.88;;;11.27;;
22622;SDS011;11478;51.094;7.030;2022-08-01T06:48:55;17.88;;;12.38;;
22622;SDS011;11478;51.094;7.030;2022-08-01T06:53:50;16.83;;;11.73;;
22622;SDS011;11478;51.094;7.030;2022-08-01T06:56:20;14.15;;;9.15;;
22622;SDS011;11478;51.094;7.030;2022-08-01T06:58:46;20.70;;;14.55;;
22622;SDS011;11478;51.094;7.030;2022-08-01T07:01:15;17.95;;;11.35;;
22622;SDS011;11478;51.094;7.030;2022-08-01T07:03:41;15.32;;;11.35;;
22622;SDS011;11478;51.094;7.030;2022-08-01T07:06:09;14.20;;;10.05;;
22622;SDS011;11478;51.094;7.030;2022-08-01T07:08:38;14.60;;;10.90;;
22622;SDS011;11478;51.094;7.030;2022-08-01T07:11:04;16.27;;;9.98;;
22622;SDS011;11478;51.094;7.030;2022-08-01T07:19:49;13.05;;;9.85;;
22622;SDS011;11478;51.094;7.030;2022-08-01T07:22:20;14.73;;;10.02;;
22622;SDS011;11478;51.094;7.030;2022-08-01T07:24:48;10.90;;;8.50;;
22622;SDS011;11478;51.094;7.030;2022-08-01T07:30:40;12.48;;;8.20;;
22622;SDS011;11478;51.094;7.030;2022-08-01T07:33:12;12.00;;;8.82;;
22622;SDS011;11478;51.094;7.030;2022-08-01T07:38:57;12.15;;;8.38;;
22622;SDS011;11478;51.094;7.030;2022-08-01T07:44:32;11.63;;;7.90;;
22622;SDS011;11478;51.094;7.030;2022-08-01T07:49:52;9.40;;;7.00;;
22622;SDS011;11478;51.094;7.030;2022-08-01T07:52:31;10.30;;;7.70;;
22622;SDS011;11478;51.094;7.030;2022-08-01T07:55:16;9.65;;;7.03;;
22622;SDS011;11478;51.094;7.030;2022-08-01T07:57:42;8.43;;;6.63;;
22622;SDS011;11478;51.094;7.030;2022-08-01T08:06:29;9.18;;;6.53;;
22622;SDS011;11478;51.094;7.030;2022-08-01T08:09:05;8.90;;;6.63;;
22622;SDS011;11478;51.094;7.030;2022-08-01T08:11:33;8.93;;;6.55;;
22622;SDS011;11478;51.094;7.030;2022-08-01T08:20:30;9.25;;;7.25;;
22622;SDS011;11478;51.094;7.030;2022-08-01T08:23:01;7.07;;;6.32;;
22622;SDS011;11478;51.094;7.030;2022-08-01T08:26:05;8.55;;;5.95;;
22622;SDS011;11478;51.094;7.030;2022-08-01T08:28:32;8.55;;;6.85;;
22622;SDS011;11478;51.094;7.030;2022-08-01T08:31:03;8.65;;;5.75;;
22622;SDS011;11478;51.094;7.030;2022-08-01T08:33:30;10.18;;;5.68;;
22622;SDS011;11478;51.094;7.030;2022-08-01T08:36:10;6.32;;;5.72;;
22622;SDS011;11478;51.094;7.030;2022-08-01T08:38:38;9.05;;;5.32;;
22622;SDS011;11478;51.094;7.030;2022-08-01T08:44:02;7.43;;;5.43;;
22622;SDS011;11478;51.094;7.030;2022-08-01T08:46:39;5.20;;;4.70;;
22622;SDS011;11478;51.094;7.030;2022-08-01T08:49:08;7.43;;;5.25;;
22622;SDS011;11478;51.094;7.030;2022-08-01T08:54:30;6.18;;;5.03;;
22622;SDS011;11478;51.094;7.030;2022-08-01T08:57:00;6.75;;;5.28;;
22622;SDS011;11478;51.094;7.030;2022-08-01T08:59:26;5.72;;;4.53;;
22622;SDS011;11478;51.094;7.030;2022-08-01T09:01:54;5.93;;;4.40;;
22622;SDS011;11478;51.094;7.030;2022-08-01T09:04:36;5.35;;;4.00;;
22622;SDS011;11478;51.094;7.030;2022-08-01T09:07:04;4.90;;;3.63;;
22622;SDS011;11478;51.094;7.030;2022-08-01T09:09:37;4.78;;;4.10;;
22622;SDS011;11478;51.094;7.030;2022-08-01T09:12:03;4.97;;;3.78;;
22622;SDS011;11478;51.094;7.030;2022-08-01T09:14:36;3.80;;;3.40;;
22622;SDS011;11478;51.094;7.030;2022-08-01T09:17:18;6.05;;;3.85;;
22622;SDS011;11478;51.094;7.030;2022-08-01T09:19:56;4.43;;;3.50;;
22622;SDS011;11478;51.094;7.030;2022-08-01T09:22:23;5.70;;;3.42;;
22622;SDS011;11478;51.094;7.030;2022-08-01T09:25:07;4.05;;;2.90;;
22622;SDS011;11478;51.094;7.030;2022-08-01T09:27:36;3.50;;;3.00;;
22622;SDS011;11478;51.094;7.030;2022-08-01T09:30:17;3.92;;;3.20;;
22622;SDS011;11478;51.094;7.030;2022-08-01T09:38:11;4.95;;;3.42;;
22622;SDS011;11478;51.094;7.030;2022-08-01T09:40:57;6.32;;;3.58;;
22622;SDS011;11478;51.094;7.030;2022-08-01T09:43:38;3.65;;;3.35;;
22622;SDS011;11478;51.094;7.030;2022-08-01T09:46:05;4.50;;;3.55;;
22622;SDS011;11478;51.094;7.030;2022-08-01T09:48:38;6.30;;;3.60;;
22622;SDS011;11478;51.094;7.030;2022-08-01T09:51:27;3.97;;;3.53;;
22622;SDS011;11478;51.094;7.030;2022-08-01T09:54:36;4.10;;;3.70;;
22622;SDS011;11478;51.094;7.030;2022-08-01T09:59:58;5.60;;;4.45;;
22622;SDS011;11478;51.094;7.030;2022-08-01T10:05:33;5.95;;;4.35;;
22622;SDS011;11478;51.094;7.030;2022-08-01T10:08:06;7.32;;;4.35;;
22622;SDS011;11478;51.094;7.030;2022-08-01T10:10:32;7.03;;;4.18;;
22622;SDS011;11478;51.094;7.030;2022-08-01T10:13:18;4.78;;;3.90;;
22622;SDS011;11478;51.094;7.030;2022-08-01T10:15:44;5.97;;;4.22;;
22622;SDS011;11478;51.094;7.030;2022-08-01T10:18:18;5.15;;;3.60;;
22622;SDS011;11478;51.094;7.030;2022-08-01T10:20:45;5.35;;;3.60;;
22622;SDS011;11478;51.094;7.030;2022-08-01T10:26:04;5.47;;;3.67;;
22622;SDS011;11478;51.094;7.030;2022-08-01T10:31:02;4.10;;;3.70;;
22622;SDS011;11478;51.094;7.030;2022-08-01T10:36:01;4.20;;;3.53;;
22622;SDS011;11478;51.094;7.030;2022-08-01T10:40:58;5.55;;;3.17;;
22622;SDS011;11478;51.094;7.030;2022-08-01T10:45:57;5.55;;;3.45;;
22622;SDS011;11478;51.094;7.030;2022-08-01T10:54:16;5.03;;;3.20;;
22622;SDS011;11478;51.094;7.030;2022-08-01T10:56:50;4.25;;;3.33;;
22622;SDS011;11478;51.094;7.030;2022-08-01T10:59:20;5.70;;;3.08;;
22622;SDS011;11478;51.094;7.030;2022-08-01T11:07:55;3.20;;;2.90;;
22622;SDS011;11478;51.094;7.030;2022-08-01T11:15:32;3.80;;;2.78;;
22622;SDS011;11478;51.094;7.030;2022-08-01T11:17:58;2.95;;;2.70;;
22622;SDS011;11478;51.094;7.030;2022-08-01T11:20:33;2.88;;;2.60;;
22622;SDS011;11478;51.094;7.030;2022-08-01T11:41:28;2.75;;;2.42;;
22622;SDS011;11478;51.094;7.030;2022-08-01T11:50:32;3.65;;;2.38;;
22622;SDS011;11478;51.094;7.030;2022-08-01T11:53:09;3.10;;;2.15;;
22622;SDS011;11478;51.094;7.030;2022-08-01T11:55:34;2.08;;;1.73;;
22622;SDS011;11478;51.094;7.030;2022-08-01T11:58:12;1.60;;;1.50;;
22622;SDS011;11478;51.094;7.030;2022-08-01T12:00:38;1.98;;;1.38;;
22622;SDS011;11478;51.094;7.030;2022-08-01T12:03:12;2.83;;;1.60;;
22622;SDS011;11478;51.094;7.030;2022-08-01T12:05:38;2.10;;;1.48;;
22622;SDS011;11478;51.094;7.030;2022-08-01T12:08:11;2.95;;;1.70;;
22622;SDS011;11478;51.094;7.030;2022-08-01T12:10:38;1.88;;;1.63;;
22622;SDS011;11478;51.094;7.030;2022-08-01T12:13:06;3.53;;;2.00;;
22622;SDS011;11478;51.094;7.030;2022-08-01T12:15:33;2.97;;;1.77;;
22622;SDS011;11478;51.094;7.030;2022-08-01T12:18:11;2.10;;;1.70;;
22622;SDS011;11478;51.094;7.030;2022-08-01T12:20:39;2.72;;;1.63;;
22622;SDS011;11478;51.094;7.030;2022-08-01T12:23:11;1.92;;;1.73;;
22622;SDS011;11478;51.094;7.030;2022-08-01T12:25:38;1.50;;;1.40;;
22622;SDS011;11478;51.094;7.030;2022-08-01T12:28:16;2.20;;;1.60;;
22622;SDS011;11478;51.094;7.030;2022-08-01T12:30:46;1.60;;;1.50;;
22622;SDS011;11478;51.094;7.030;2022-08-01T12:33:29;2.85;;;1.60;;
22622;SDS011;11478;51.094;7.030;2022-08-01T12:35:55;1.92;;;1.45;;
22622;SDS011;11478;51.094;7.030;2022-08-01T12:41:37;1.90;;;1.15;;
22622;SDS011;11478;51.094;7.030;2022-08-01T12:44:12;2.22;;;1.45;;
22622;SDS011;11478;51.094;7.030;2022-08-01T12:46:40;2.83;;;1.50;;
22622;SDS011;11478;51.094;7.030;2022-08-01T12:49:08;1.42;;;1.20;;
22622;SDS011;11478;51.094;7.030;2022-08-01T12:51:34;1.45;;;1.13;;
22622;SDS011;11478;51.094;7.030;2022-08-01T12:54:19;1.63;;;1.00;;
22622;SDS011;11478;51.094;7.030;2022-08-01T12:56:45;2.83;;;1.40;;
22622;SDS011;11478;51.094;7.030;2022-08-01T12:59:25;1.60;;;1.08;;
22622;SDS011;11478;51.094;7.030;2022-08-01T13:01:53;2.13;;;1.38;;
22622;SDS011;11478;51.094;7.030;2022-08-01T13:04:30;1.45;;;1.30;;
22622;SDS011;11478;51.094;7.030;2022-08-01T13:06:56;3.10;;;1.80;;
22622;SDS011;11478;51.094;7.030;2022-08-01T13:09:23;2.65;;;1.50;;
22622;SDS011;11478;51.094;7.030;2022-08-01T13:11:49;2.40;;;1.60;;
22622;SDS011;11478;51.094;7.030;2022-08-01T13:17:34;3.67;;;1.77;;
22622;SDS011;11478;51.094;7.030;2022-08-01T13:22:55;7.25;;;1.88;;
22622;SDS011;11478;51.094;7.030;2022-08-01T13:25:51;2.67;;;1.70;;
22622;SDS011;11478;51.094;7.030;2022-08-01T13:31:22;3.30;;;1.38;;
22622;SDS011;11478;51.094;7.030;2022-08-01T13:34:01;1.58;;;1.27;;
22622;SDS011;11478;51.094;7.030;2022-08-01T13:36:28;1.20;;;1.10;;
22622;SDS011;11478;51.094;7.030;2022-08-01T13:38:56;3.42;;;1.58;;
22622;SDS011;11478;51.094;7.030;2022-08-01T13:47:05;3.22;;;1.30;;
22622;SDS011;11478;51.094;7.030;2022-08-01T13:49:32;3.17;;;1.42;;
22622;SDS011;11478;51.094;7.030;2022-08-01T13:52:00;3.42;;;1.40;;
22622;SDS011;11478;51.094;7.030;2022-08-01T13:54:30;1.45;;;1.33;;
22622;SDS011;11478;51.094;7.030;2022-08-01T13:59:41;5.25;;;1.40;;
22622;SDS011;11478;51.094;7.030;2022-08-01T14:02:26;2.25;;;1.30;;
22622;SDS011;11478;51.094;7.030;2022-08-01T14:04:53;1.83;;;1.35;;
22622;SDS011;11478;51.094;7.030;2022-08-01T14:10:55;2.78;;;1.50;;
22622;SDS011;11478;51.094;7.030;2022-08-01T14:26:31;5.50;;;1.60;;
22622;SDS011;11478;51.094;7.030;2022-08-01T14:28:56;6.20;;;1.80;;
22622;SDS011;11478;51.094;7.030;2022-08-01T14:31:28;1.85;;;1.27;;
22622;SDS011;11478;51.094;7.030;2022-08-01T14:39:37;1.30;;;1.13;;
22622;SDS011;11478;51.094;7.030;2022-08-01T14:45:03;2.30;;;1.15;;
22622;SDS011;11478;51.094;7.030;2022-08-01T14:47:35;2.65;;;1.20;;
22622;SDS011;11478;51.094;7.030;2022-08-01T14:55:23;2.83;;;1.45;;
22622;SDS011;11478;51.094;7.030;2022-08-01T14:57:52;1.55;;;1.45;;
22622;SDS011;11478;51.094;7.030;2022-08-01T15:00:24;3.25;;;1.73;;
22622;SDS011;11478;51.094;7.030;2022-08-01T15:02:50;8.32;;;1.67;;
22622;SDS011;11478;51.094;7.030;2022-08-01T15:08:18;1.85;;;1.58;;
22622;SDS011;11478;51.094;7.030;2022-08-01T15:14:16;1.95;;;1.52;;
22622;SDS011;11478;51.094;7.030;2022-08-01T15:17:01;3.10;;;1.80;;
22622;SDS011;11478;51.094;7.030;2022-08-01T15:22:19;2.63;;;1.42;;
22622;SDS011;11478;51.094;7.030;2022-08-01T15:24:49;4.32;;;2.13;;
22622;SDS011;11478;51.094;7.030;2022-08-01T15:59:31;1.85;;;1.50;;
22622;SDS011;11478;51.094;7.030;2022-08-01T16:23:55;3.08;;;2.10;;
22622;SDS011;11478;51.094;7.030;2022-08-01T16:29:12;2.72;;;1.70;;
22622;SDS011;11478;51.094;7.030;2022-08-01T16:31:42;1.92;;;1.70;;
22622;SDS011;11478;51.094;7.030;2022-08-01T16:34:07;2.85;;;2.15;;
22622;SDS011;11478;51.094;7.030;2022-08-01T16:41:46;2.13;;;1.80;;
22622;SDS011;11478;51.094;7.030;2022-08-01T16:44:14;3.10;;;2.00;;
22622;SDS011;11478;51.094;7.030;2022-08-01T16:49:35;2.45;;;2.17;;
22622;SDS011;11478;51.094;7.030;2022-08-01T16:58:27;4.53;;;2.42;;
22622;SDS011;11478;51.094;7.030;2022-08-01T17:03:57;2.43;;;2.13;;
22622;SDS011;11478;51.094;7.030;2022-08-01T17:06:28;1.92;;;1.83;;
22622;SDS011;11478;51.094;7.030;2022-08-01T17:08:54;2.10;;;1.88;;
22622;SDS011;11478;51.094;7.030;2022-08-01T17:14:45;3.58;;;1.80;;
22622;SDS011;11478;51.094;7.030;2022-08-01T17:17:16;2.50;;;1.80;;
22622;SDS011;11478;51.094;7.030;2022-08-01T17:19:42;2.45;;;1.73;;
22622;SDS011;11478;51.094;7.030;2022-08-01T17:40:57;4.63;;;2.30;;
22622;SDS011;11478;51.094;7.030;2022-08-01T17:43:24;3.53;;;1.67;;
22622;SDS011;11478;51.094;7.030;2022-08-01T17:45:50;3.72;;;2.03;;
22622;SDS011;11478;51.094;7.030;2022-08-01T17:51:39;2.72;;;1.95;;
22622;SDS011;11478;51.094;7.030;2022-08-01T17:54:05;2.55;;;2.00;;
22622;SDS011;11478;51.094;7.030;2022-08-01T17:57:07;2.63;;;2.22;;
22622;SDS011;11478;51.094;7.030;2022-08-01T17:59:46;2.78;;;2.22;;
22622;SDS011;11478;51.094;7.030;2022-08-01T18:07:38;5.90;;;2.50;;
22622;SDS011;11478;51.094;7.030;2022-08-01T18:16:18;6.05;;;2.70;;
22622;SDS011;11478;51.094;7.030;2022-08-01T20:49:04;6.03;;;3.60;;
